createdAt,value
2023-05-20T00:04:11.862Z,10.70
2023-05-20T00:09:33.014Z,10.48
2023-05-20T00:14:55.860Z,10.93
2023-05-20T00:20:17.038Z,10.90
2023-05-20T00:25:38.263Z,11.18
2023-05-20T00:30:59.045Z,12.13
2023-05-20T00:36:20.799Z,11.55
2023-05-20T00:41:42.041Z,12.23
2023-05-20T00:47:03.070Z,12.10
2023-05-20T00:52:25.056Z,10.10
2023-05-20T00:57:46.684Z,11.15
2023-05-20T01:03:08.269Z,12.45
2023-05-20T01:08:29.651Z,12.75
2023-05-20T01:13:58.183Z,12.48
2023-05-20T01:19:38.500Z,11.98
2023-05-20T01:24:59.296Z,12.77
2023-05-20T01:30:21.324Z,14.00
2023-05-20T01:35:43.125Z,12.13
2023-05-20T01:41:05.927Z,14.55
2023-05-20T01:46:27.644Z,13.88
2023-05-20T01:51:48.489Z,12.65
2023-05-20T01:57:09.351Z,14.02
2023-05-20T02:02:30.622Z,13.90
2023-05-20T02:07:51.764Z,13.50
2023-05-20T02:13:15.222Z,13.73
2023-05-20T02:18:36.706Z,13.30
2023-05-20T02:23:57.521Z,11.90
2023-05-20T02:29:18.565Z,12.90
2023-05-20T02:34:39.614Z,13.65
2023-05-20T02:40:00.926Z,14.25
2023-05-20T02:45:21.726Z,13.93
2023-05-20T02:50:42.501Z,12.80
2023-05-20T02:56:08.894Z,13.60
2023-05-20T03:01:29.974Z,14.02
2023-05-20T03:06:52.155Z,12.73
2023-05-20T03:12:13.163Z,13.48
2023-05-20T03:17:34.280Z,13.98
2023-05-20T03:22:55.267Z,13.45
2023-05-20T03:28:15.955Z,14.27
2023-05-20T03:33:37.767Z,13.30
2023-05-20T03:38:59.081Z,13.55
2023-05-20T03:44:20.654Z,14.20
2023-05-20T03:49:41.604Z,13.45
2023-05-20T03:55:02.708Z,13.98
2023-05-20T04:00:24.254Z,13.25
2023-05-20T04:05:45.095Z,13.63
2023-05-20T04:11:12.008Z,12.95
2023-05-20T04:16:33.035Z,13.55
2023-05-20T04:21:54.565Z,14.18
2023-05-20T04:27:16.526Z,12.55
2023-05-20T04:32:38.807Z,13.20
2023-05-20T04:37:59.687Z,12.95
2023-05-20T04:43:21.208Z,12.35
2023-05-20T04:48:44.022Z,12.63
2023-05-20T04:54:07.976Z,12.52
2023-05-20T04:59:28.784Z,12.00
2023-05-20T05:04:50.245Z,11.15
2023-05-20T05:10:11.807Z,11.55
2023-05-20T05:15:33.727Z,11.05
2023-05-20T05:21:04.184Z,10.43
2023-05-20T05:26:26.754Z,9.98
2023-05-20T05:31:48.526Z,12.32
2023-05-20T05:37:11.637Z,11.02
2023-05-20T05:42:36.818Z,12.52
2023-05-20T05:48:02.324Z,11.13
2023-05-20T05:53:25.437Z,11.73
2023-05-20T05:58:48.496Z,10.32
2023-05-20T06:04:10.936Z,11.07
2023-05-20T06:09:33.383Z,9.90
2023-05-20T06:14:54.367Z,9.50
2023-05-20T06:20:15.505Z,9.73
2023-05-20T06:25:48.865Z,9.05
2023-05-20T06:31:10.432Z,10.30
2023-05-20T06:36:33.878Z,7.40
2023-05-20T06:41:55.543Z,8.02
2023-05-20T06:47:26.098Z,8.82
2023-05-20T06:52:47.509Z,7.68
2023-05-20T06:58:09.243Z,7.68
2023-05-20T07:03:32.139Z,7.45
2023-05-20T07:08:53.445Z,8.48
2023-05-20T07:14:14.710Z,8.95
2023-05-20T07:19:36.463Z,8.18
2023-05-20T07:24:57.313Z,7.40
2023-05-20T07:30:18.274Z,8.32
2023-05-20T07:35:49.041Z,7.22
2023-05-20T07:41:11.609Z,6.93
2023-05-20T07:46:33.034Z,6.82
2023-05-20T07:51:54.124Z,7.57
2023-05-20T07:57:15.535Z,6.40
2023-05-20T08:02:36.957Z,6.25
2023-05-20T08:07:58.181Z,6.57
2023-05-20T08:13:22.967Z,5.90
2023-05-20T08:18:43.851Z,5.90
2023-05-20T08:24:05.422Z,5.55
2023-05-20T08:29:27.032Z,5.45
2023-05-20T08:34:49.357Z,6.35
2023-05-20T08:40:11.921Z,6.05
2023-05-20T08:45:37.158Z,4.65
2023-05-20T08:51:04.320Z,4.72
2023-05-20T08:56:29.991Z,5.40
2023-05-20T09:01:52.212Z,5.00
2023-05-20T09:07:13.826Z,5.57
2023-05-20T09:12:37.557Z,4.63
2023-05-20T09:18:03.140Z,5.05
2023-05-20T09:23:25.695Z,5.68
2023-05-20T09:28:47.186Z,5.38
2023-05-20T09:34:08.268Z,5.15
2023-05-20T09:39:34.170Z,5.20
2023-05-20T09:44:58.150Z,4.22
2023-05-20T09:50:21.676Z,4.60
2023-05-20T09:55:45.616Z,3.58
2023-05-20T10:01:08.081Z,4.40
2023-05-20T10:06:28.989Z,4.20
2023-05-20T10:12:19.113Z,3.72
2023-05-20T10:18:06.272Z,4.43
2023-05-20T10:23:31.750Z,3.72
2023-05-20T10:28:52.739Z,3.80
2023-05-20T10:34:21.530Z,4.30
2023-05-20T10:39:43.223Z,3.80
2023-05-20T10:45:06.984Z,4.18
2023-05-20T10:50:30.182Z,4.07
2023-05-20T10:55:53.440Z,4.43
2023-05-20T11:01:16.983Z,4.78
2023-05-20T11:06:38.199Z,4.70
2023-05-20T11:11:58.931Z,4.03
2023-05-20T11:17:20.564Z,4.82
2023-05-20T11:22:41.807Z,5.55
2023-05-20T11:28:03.045Z,4.78
2023-05-20T11:33:27.399Z,4.75
2023-05-20T11:38:48.134Z,4.72
2023-05-20T11:44:15.227Z,5.57
2023-05-20T11:49:42.438Z,4.90
2023-05-20T11:55:03.347Z,4.85
2023-05-20T12:00:24.469Z,6.20
2023-05-20T12:05:47.844Z,5.43
2023-05-20T12:11:09.194Z,6.00
2023-05-20T12:16:32.338Z,6.03
2023-05-20T12:21:53.709Z,6.60
2023-05-20T12:27:15.009Z,6.65
2023-05-20T12:32:38.147Z,6.22
2023-05-20T12:37:59.314Z,5.50
2023-05-20T12:43:21.723Z,4.95
2023-05-20T12:48:42.878Z,5.65
2023-05-20T12:54:03.746Z,5.97
2023-05-20T12:59:24.619Z,4.38
2023-05-20T13:04:45.463Z,3.97
2023-05-20T13:10:07.878Z,4.25
2023-05-20T13:15:33.369Z,4.05
2023-05-20T13:20:54.403Z,4.00
2023-05-20T13:26:17.131Z,4.47
2023-05-20T13:31:39.860Z,4.20
2023-05-20T13:37:00.874Z,3.42
2023-05-20T13:42:23.960Z,5.45
2023-05-20T13:47:47.382Z,4.80
2023-05-20T13:53:12.567Z,4.55
2023-05-20T13:58:33.706Z,5.03
2023-05-20T14:03:54.653Z,4.53
2023-05-20T14:09:15.929Z,4.38
2023-05-20T14:14:37.349Z,3.88
2023-05-20T14:19:58.345Z,3.83
2023-05-20T14:25:19.626Z,4.20
2023-05-20T14:30:40.821Z,3.60
2023-05-20T14:36:02.483Z,3.88
2023-05-20T14:41:23.647Z,3.80
2023-05-20T14:46:44.857Z,4.03
2023-05-20T14:52:07.817Z,4.30
2023-05-20T14:57:28.745Z,4.03
2023-05-20T15:02:51.005Z,4.25
2023-05-20T15:08:12.050Z,4.75
2023-05-20T15:13:33.040Z,4.30
2023-05-20T15:18:54.097Z,4.13
2023-05-20T15:24:15.413Z,3.88
2023-05-20T15:29:38.637Z,4.28
2023-05-20T15:35:02.689Z,4.05
2023-05-20T15:40:23.925Z,3.80
2023-05-20T15:45:46.403Z,3.58
2023-05-20T15:51:07.653Z,4.28
2023-05-20T15:56:29.597Z,4.22
2023-05-20T16:01:51.034Z,4.03
2023-05-20T16:07:12.628Z,3.85
2023-05-20T16:12:33.429Z,4.93
2023-05-20T16:17:54.256Z,4.35
2023-05-20T16:23:15.168Z,4.45
2023-05-20T16:28:36.311Z,4.10
2023-05-20T16:33:57.684Z,4.35
2023-05-20T16:39:18.768Z,3.90
2023-05-20T16:44:39.921Z,4.07
2023-05-20T16:50:01.101Z,4.55
2023-05-20T16:55:21.978Z,4.35
2023-05-20T17:00:42.738Z,3.97
2023-05-20T17:06:04.503Z,5.30
2023-05-20T17:11:26.099Z,4.60
2023-05-20T17:16:47.430Z,3.88
2023-05-20T17:22:09.378Z,4.32
2023-05-20T17:27:30.546Z,4.18
2023-05-20T17:32:53.983Z,4.65
2023-05-20T17:38:15.494Z,4.20
2023-05-20T17:43:36.398Z,4.50
2023-05-20T17:48:57.365Z,4.38
2023-05-20T17:54:18.740Z,4.05
2023-05-20T17:59:42.020Z,3.78
2023-05-20T18:05:03.370Z,4.30
2023-05-20T18:10:24.394Z,4.93
2023-05-20T18:15:45.199Z,4.65
2023-05-20T18:21:07.809Z,5.03
2023-05-20T18:26:28.858Z,4.70
2023-05-20T18:31:49.682Z,4.28
2023-05-20T18:37:10.788Z,5.57
2023-05-20T18:42:32.264Z,4.97
2023-05-20T18:47:57.774Z,5.00
2023-05-20T18:53:19.091Z,4.90
2023-05-20T18:58:40.236Z,4.60
2023-05-20T19:04:01.244Z,5.05
2023-05-20T19:09:22.362Z,4.95
2023-05-20T19:14:43.200Z,5.05
2023-05-20T19:20:07.220Z,5.28
2023-05-20T19:25:28.301Z,5.60
2023-05-20T19:30:50.064Z,5.95
2023-05-20T19:36:11.130Z,6.00
2023-05-20T19:41:31.928Z,5.13
2023-05-20T19:46:53.904Z,5.53
2023-05-20T19:52:15.005Z,5.95
2023-05-20T19:57:36.020Z,5.63
2023-05-20T20:02:57.950Z,5.45
2023-05-20T20:08:18.935Z,6.43
2023-05-20T20:13:39.929Z,6.78
2023-05-20T20:19:01.446Z,6.65
2023-05-20T20:24:24.232Z,6.97
2023-05-20T20:29:45.194Z,6.95
2023-05-20T20:35:07.050Z,7.05
2023-05-20T20:40:28.486Z,7.85
2023-05-20T20:45:53.243Z,6.57
2023-05-20T20:51:15.920Z,6.75
2023-05-20T20:56:38.123Z,6.05
2023-05-20T21:02:00.593Z,6.72
2023-05-20T21:07:25.642Z,5.95
2023-05-20T21:12:46.419Z,5.80
2023-05-20T21:18:07.629Z,7.20
2023-05-20T21:23:28.358Z,7.63
2023-05-20T21:28:49.205Z,7.35
2023-05-20T21:34:09.933Z,6.15
2023-05-20T21:39:30.918Z,6.80
2023-05-20T21:44:52.115Z,7.32
2023-05-20T21:50:13.248Z,7.22
2023-05-20T21:55:34.475Z,7.22
2023-05-20T22:00:55.586Z,6.68
2023-05-20T22:06:17.155Z,6.90
2023-05-20T22:11:38.158Z,7.38
2023-05-20T22:16:59.404Z,7.80
2023-05-20T22:22:20.472Z,7.75
2023-05-20T22:27:44.026Z,7.88
2023-05-20T22:33:05.886Z,7.50
2023-05-20T22:38:29.544Z,6.95
2023-05-20T22:43:50.683Z,5.85
2023-05-20T22:49:13.071Z,7.55
2023-05-20T22:54:34.788Z,7.35
2023-05-20T22:59:55.747Z,7.57
2023-05-20T23:05:16.584Z,8.48
2023-05-20T23:10:37.366Z,7.95
2023-05-20T23:15:58.252Z,8.10
2023-05-20T23:21:19.624Z,8.52
2023-05-20T23:26:40.420Z,7.90
2023-05-20T23:32:01.478Z,8.48
2023-05-20T23:37:22.554Z,7.07
2023-05-20T23:42:43.407Z,8.70
2023-05-20T23:48:04.563Z,7.85
2023-05-20T23:53:25.830Z,8.18
2023-05-20T23:58:47.394Z,8.70
